createdAt,value
2019-02-06T00:02:19.653Z,3.10
2019-02-06T00:07:11.551Z,3.20
2019-02-06T00:12:03.375Z,3.20
2019-02-06T00:16:55.767Z,3.20
2019-02-06T00:21:47.605Z,3.30
2019-02-06T00:26:39.419Z,3.40
2019-02-06T00:31:31.045Z,3.40
2019-02-06T00:36:23.726Z,3.40
2019-02-06T00:41:16.041Z,3.40
2019-02-06T00:46:10.717Z,3.50
2019-02-06T00:51:01.864Z,3.50
2019-02-06T00:55:54.468Z,3.50
2019-02-06T01:00:46.587Z,3.50
2019-02-06T01:05:39.693Z,3.40
2019-02-06T01:10:31.049Z,3.40
2019-02-06T01:15:23.037Z,3.40
2019-02-06T01:20:14.488Z,3.40
2019-02-06T01:25:06.518Z,3.30
2019-02-06T01:29:58.320Z,3.30
2019-02-06T01:34:50.152Z,3.30
2019-02-06T01:39:42.666Z,3.20
2019-02-06T01:44:34.769Z,3.30
2019-02-06T01:49:26.725Z,3.30
2019-02-06T01:54:18.765Z,3.20
2019-02-06T01:59:10.823Z,3.20
2019-02-06T02:04:02.808Z,3.20
2019-02-06T02:08:54.917Z,3.20
2019-02-06T02:13:46.823Z,3.10
2019-02-06T02:18:38.581Z,3.10
2019-02-06T02:23:33.181Z,3.10
2019-02-06T02:28:24.647Z,3.00
2019-02-06T02:33:16.297Z,3.10
2019-02-06T02:38:08.191Z,3.00
2019-02-06T02:43:00.685Z,3.00
2019-02-06T02:47:55.062Z,3.00
2019-02-06T02:52:46.546Z,3.00
2019-02-06T02:57:38.623Z,3.10
2019-02-06T03:02:31.195Z,3.10
2019-02-06T03:07:23.462Z,3.00
2019-02-06T03:12:15.406Z,3.10
2019-02-06T03:17:07.928Z,3.10
2019-02-06T03:21:59.575Z,3.20
2019-02-06T03:26:51.570Z,3.20
2019-02-06T03:31:43.469Z,3.20
2019-02-06T03:36:41.411Z,3.20
2019-02-06T03:41:32.103Z,3.20
2019-02-06T03:46:23.970Z,3.20
2019-02-06T03:51:15.719Z,3.20
2019-02-06T03:56:07.532Z,3.20
2019-02-06T04:00:59.618Z,3.30
2019-02-06T04:05:52.221Z,3.30
2019-02-06T04:10:44.452Z,3.30
2019-02-06T04:15:36.506Z,3.30
2019-02-06T04:20:28.713Z,3.30
2019-02-06T04:25:20.961Z,3.30
2019-02-06T04:30:13.440Z,3.30
2019-02-06T04:35:06.235Z,3.30
2019-02-06T04:39:57.950Z,3.30
2019-02-06T04:44:49.746Z,3.30
2019-02-06T04:49:43.325Z,3.30
2019-02-06T04:54:34.525Z,3.20
2019-02-06T04:59:26.506Z,3.20
2019-02-06T05:04:18.449Z,3.20
2019-02-06T05:09:11.176Z,3.20
2019-02-06T05:14:02.773Z,3.20
2019-02-06T05:18:54.560Z,3.20
2019-02-06T05:23:46.499Z,3.20
2019-02-06T05:28:38.276Z,3.20
2019-02-06T05:33:30.008Z,3.20
2019-02-06T05:38:21.976Z,3.10
2019-02-06T05:43:13.686Z,3.20
2019-02-06T05:48:05.471Z,3.10
2019-02-06T05:53:00.060Z,3.20
2019-02-06T05:57:53.983Z,3.20
2019-02-06T06:02:45.250Z,3.20
2019-02-06T06:07:45.974Z,3.20
2019-02-06T06:12:36.691Z,3.20
2019-02-06T06:17:28.744Z,3.20
2019-02-06T06:22:20.501Z,3.20
2019-02-06T06:27:12.323Z,3.20
2019-02-06T06:32:04.449Z,3.20
2019-02-06T06:36:58.419Z,3.20
2019-02-06T06:41:51.757Z,3.30
2019-02-06T06:46:43.140Z,3.30
2019-02-06T06:51:35.303Z,3.30
2019-02-06T06:56:27.183Z,3.30
2019-02-06T07:01:19.008Z,3.40
2019-02-06T07:06:10.999Z,3.40
2019-02-06T07:11:03.175Z,3.40
2019-02-06T07:15:55.745Z,3.40
2019-02-06T07:20:48.180Z,3.40
2019-02-06T07:25:39.966Z,3.40
2019-02-06T07:30:31.823Z,3.50
2019-02-06T07:35:23.814Z,3.50
2019-02-06T07:40:15.564Z,3.50
2019-02-06T07:45:07.414Z,3.60
2019-02-06T07:49:59.377Z,3.70
2019-02-06T07:54:51.246Z,3.70
2019-02-06T07:59:43.926Z,3.80
2019-02-06T08:04:35.886Z,3.80
2019-02-06T08:09:27.981Z,3.90
2019-02-06T08:14:20.543Z,4.00
2019-02-06T08:19:12.710Z,4.00
2019-02-06T08:24:05.231Z,4.10
2019-02-06T08:28:57.193Z,4.20
2019-02-06T08:33:51.214Z,4.30
2019-02-06T08:38:50.649Z,4.30
2019-02-06T08:43:41.661Z,4.30
2019-02-06T08:48:33.574Z,4.30
2019-02-06T08:53:25.424Z,4.40
2019-02-06T08:58:16.997Z,4.40
2019-02-06T08:59:17.700Z,4.50
2019-02-06T09:04:10.053Z,4.50
2019-02-06T09:09:02.218Z,4.60
2019-02-06T09:13:54.479Z,4.70
2019-02-06T09:18:46.781Z,4.80
2019-02-06T09:23:38.925Z,4.80
2019-02-06T09:28:31.872Z,4.90
2019-02-06T09:33:24.051Z,5.10
2019-02-06T09:38:16.374Z,5.20
2019-02-06T09:43:08.536Z,5.40
2019-02-06T09:48:00.639Z,5.50
2019-02-06T09:52:52.884Z,5.60
2019-02-06T09:57:45.091Z,5.70
2019-02-06T10:02:38.886Z,5.80
2019-02-06T10:07:32.412Z,5.90
2019-02-06T10:12:24.078Z,5.90
2019-02-06T10:17:15.978Z,5.90
2019-02-06T10:22:08.134Z,6.00
2019-02-06T10:27:00.077Z,6.10
2019-02-06T10:31:53.029Z,6.10
2019-02-06T10:36:47.811Z,6.20
2019-02-06T10:41:39.226Z,6.20
2019-02-06T10:46:31.166Z,6.30
2019-02-06T10:51:23.286Z,6.40
2019-02-06T10:56:15.390Z,6.50
2019-02-06T11:01:07.518Z,6.50
2019-02-06T11:05:59.511Z,6.60
2019-02-06T11:10:52.081Z,6.70
2019-02-06T11:15:43.842Z,6.70
2019-02-06T11:20:35.965Z,6.70
2019-02-06T11:25:28.299Z,6.80
2019-02-06T11:30:21.139Z,6.90
2019-02-06T11:35:13.847Z,7.00
2019-02-06T11:40:05.786Z,7.10
2019-02-06T11:44:58.270Z,7.10
2019-02-06T11:49:50.306Z,7.10
2019-02-06T11:54:43.703Z,7.20
2019-02-06T11:59:35.646Z,7.30
2019-02-06T12:04:27.601Z,7.40
2019-02-06T12:09:19.913Z,7.40
2019-02-06T12:14:12.176Z,7.40
2019-02-06T12:19:04.461Z,7.50
2019-02-06T12:23:56.562Z,7.50
2019-02-06T12:28:49.385Z,7.60
2019-02-06T12:33:42.183Z,7.70
2019-02-06T12:38:34.755Z,7.80
2019-02-06T12:43:26.916Z,8.00
2019-02-06T12:48:19.027Z,8.00
2019-02-06T12:53:11.213Z,8.00
2019-02-06T12:58:03.886Z,8.00
2019-02-06T13:03:00.954Z,8.10
2019-02-06T13:07:51.993Z,8.10
2019-02-06T13:12:44.197Z,8.20
2019-02-06T13:17:36.072Z,8.30
2019-02-06T13:22:29.285Z,8.30
2019-02-06T13:27:22.260Z,8.40
2019-02-06T13:32:14.390Z,8.40
2019-02-06T13:37:06.908Z,8.50
2019-02-06T13:41:58.674Z,8.60
2019-02-06T13:46:54.153Z,8.70
2019-02-06T13:51:45.576Z,8.80
2019-02-06T13:56:37.888Z,8.80
2019-02-06T14:01:29.672Z,8.90
2019-02-06T14:06:21.805Z,9.00
2019-02-06T14:11:13.788Z,9.00
2019-02-06T14:16:06.136Z,9.10
2019-02-06T14:20:58.969Z,9.20
2019-02-06T14:25:53.189Z,9.30
2019-02-06T14:30:44.946Z,9.40
2019-02-06T14:35:37.417Z,9.50
2019-02-06T14:40:29.521Z,9.60
2019-02-06T14:45:21.710Z,9.70
2019-02-06T14:50:13.886Z,9.60
2019-02-06T14:55:06.189Z,9.70
2019-02-06T14:59:58.658Z,9.70
2019-02-06T15:04:50.917Z,9.70
2019-02-06T15:09:43.135Z,9.70
2019-02-06T15:14:35.279Z,9.70
2019-02-06T15:19:27.738Z,9.70
2019-02-06T15:24:19.908Z,9.80
2019-02-06T15:29:11.990Z,9.80
2019-02-06T15:34:04.197Z,9.80
2019-02-06T15:38:56.371Z,9.80
2019-02-06T15:43:48.437Z,9.80
2019-02-06T15:48:42.483Z,9.80
2019-02-06T15:53:33.943Z,9.70
2019-02-06T15:58:28.012Z,9.70
2019-02-06T16:03:19.292Z,9.70
2019-02-06T16:08:11.711Z,9.80
2019-02-06T16:13:04.114Z,9.80
2019-02-06T16:17:56.368Z,9.80
2019-02-06T16:22:48.814Z,9.70
2019-02-06T16:27:40.930Z,9.70
2019-02-06T16:32:33.071Z,9.70
2019-02-06T16:37:25.606Z,9.70
2019-02-06T16:42:17.978Z,9.70
2019-02-06T16:47:10.207Z,9.70
2019-02-06T16:52:02.504Z,9.60
2019-02-06T16:56:54.920Z,9.60
2019-02-06T17:01:47.102Z,9.60
2019-02-06T17:06:38.997Z,9.70
2019-02-06T17:11:31.245Z,9.70
2019-02-06T17:16:23.576Z,9.70
2019-02-06T17:21:15.527Z,9.70
2019-02-06T17:26:08.630Z,9.70
2019-02-06T17:31:00.487Z,9.60
2019-02-06T17:35:52.546Z,9.50
2019-02-06T17:40:44.673Z,9.50
2019-02-06T17:45:36.717Z,9.40
2019-02-06T17:50:28.638Z,9.40
2019-02-06T17:55:20.972Z,9.30
2019-02-06T18:00:13.235Z,9.20
2019-02-06T18:05:05.238Z,9.20
2019-02-06T18:09:57.738Z,9.20
2019-02-06T18:14:50.000Z,9.10
2019-02-06T18:25:23.025Z,9.00
2019-02-06T18:30:30.234Z,8.90
2019-02-06T18:35:34.929Z,8.80
2019-02-06T18:40:58.673Z,8.70
2019-02-06T18:46:02.197Z,8.60
2019-02-06T18:51:05.512Z,8.60
2019-02-06T18:56:15.982Z,8.50
2019-02-06T19:01:18.721Z,8.50
2019-02-06T19:06:23.146Z,8.40
2019-02-06T19:11:26.372Z,8.40
2019-02-06T19:16:31.890Z,8.30
2019-02-06T19:21:34.530Z,8.20
2019-02-06T19:26:38.466Z,8.20
2019-02-06T19:31:26.310Z,8.20
2019-02-06T19:36:32.502Z,8.10
2019-02-06T19:41:37.510Z,8.00
2019-02-06T19:46:41.300Z,8.00
2019-02-06T19:51:44.310Z,7.90
2019-02-06T19:56:45.693Z,7.70
2019-02-06T20:01:48.443Z,7.60
2019-02-06T20:06:55.095Z,7.50
2019-02-06T20:11:59.358Z,7.40
2019-02-06T20:17:02.204Z,7.40
2019-02-06T20:22:21.477Z,7.30
2019-02-06T20:27:23.167Z,7.30
2019-02-06T20:32:20.515Z,7.20
2019-02-06T20:37:34.553Z,7.20
2019-02-06T20:42:37.514Z,7.10
2019-02-06T20:47:50.475Z,7.10
2019-02-06T20:52:53.373Z,7.10
2019-02-06T20:57:56.536Z,7.10
2019-02-06T21:02:55.013Z,7.00
2019-02-06T21:22:28.643Z,7.00
2019-02-06T21:27:34.825Z,6.60
2019-02-06T21:32:17.931Z,6.60
2019-02-06T21:37:09.346Z,6.50
2019-02-06T21:42:00.811Z,6.50
2019-02-06T21:46:52.673Z,6.50
2019-02-06T21:51:44.508Z,6.40
2019-02-06T21:56:36.539Z,6.40
2019-02-06T22:01:28.333Z,6.50
2019-02-06T22:06:20.354Z,6.50
2019-02-06T22:11:12.506Z,6.50
2019-02-06T22:16:04.433Z,6.50
2019-02-06T22:20:56.680Z,6.50
2019-02-06T22:25:48.848Z,6.60
2019-02-06T22:30:41.038Z,6.60
2019-02-06T22:35:33.061Z,6.50
2019-02-06T22:40:25.022Z,6.50
2019-02-06T22:45:17.317Z,6.40
2019-02-06T22:50:12.264Z,6.40
2019-02-06T22:55:04.045Z,6.30
2019-02-06T22:59:55.933Z,6.30
2019-02-06T23:04:47.954Z,6.20
2019-02-06T23:09:40.297Z,6.10
2019-02-06T23:14:32.820Z,6.10
2019-02-06T23:19:24.667Z,6.10
2019-02-06T23:24:16.676Z,6.10
2019-02-06T23:29:10.800Z,6.00
2019-02-06T23:34:02.684Z,6.00
2019-02-06T23:38:54.773Z,5.90
2019-02-06T23:43:47.380Z,5.90
2019-02-06T23:48:39.752Z,5.80
2019-02-06T23:53:32.382Z,5.80
2019-02-06T23:58:24.413Z,5.80
